Time;durP1;ratioP1;P1;durP2;ratioP2;P2;SDS_P1;SDS_P2;PMS_P1;PMS_P2;Temp;Humidity;BMP_temperature;BMP_pressure;BME280_temperature;BME280_humidity;BME280_pressure;Samples;Min_cycle;Max_cycle;Signal;HPM_P1;HPM_P2
2023/12/16 00:00:51;;;;;;;8.38;3.00;;;;;;;;;;8260350;28;20272;-57
2023/12/16 00:04:52;;;;;;;6.65;3.05;;;;;;;;;;8265718;28;20072;-57
2023/12/16 00:08:52;;;;;;;8.80;3.23;;;;;;;;;;8266298;28;20057;-57
2023/12/16 00:12:52;;;;;;;5.68;3.03;;;;;;;;;;8261927;28;20276;-56
2023/12/16 00:16:52;;;;;;;12.80;2.92;;;;;;;;;;8263764;28;20081;-56
2023/12/16 00:20:53;;;;;;;7.40;2.60;;;;;;;;;;8199638;28;20053;-58
2023/12/16 00:24:53;;;;;;;5.57;2.85;;;;;;;;;;8194325;28;20052;-58
2023/12/16 00:28:53;;;;;;;8.15;3.38;;;;;;;;;;8224358;28;20013;-58
2023/12/16 00:32:54;;;;;;;7.80;3.25;;;;;;;;;;8229395;28;20037;-57
2023/12/16 00:36:54;;;;;;;8.27;3.05;;;;;;;;;;8225853;28;20026;-58
2023/12/16 00:40:54;;;;;;;7.93;3.05;;;;;;;;;;8222244;28;20021;-56
2023/12/16 00:44:57;;;;;;;7.53;2.78;;;;;;;;;;8226617;28;20021;-57
2023/12/16 00:48:57;;;;;;;6.53;2.28;;;;;;;;;;8224139;28;20172;-58
2023/12/16 00:52:58;;;;;;;4.90;2.60;;;;;;;;;;8227426;28;20319;-57
2023/12/16 00:56:58;;;;;;;7.35;2.28;;;;;;;;;;8227255;28;21198;-60
2023/12/16 01:00:58;;;;;;;6.40;2.53;;;;;;;;;;8222988;28;20068;-58
2023/12/16 01:04:59;;;;;;;7.28;2.45;;;;;;;;;;8224511;28;20121;-58
2023/12/16 01:08:59;;;;;;;4.50;2.23;;;;;;;;;;8226649;28;20113;-58
2023/12/16 01:12:59;;;;;;;8.35;3.03;;;;;;;;;;8226909;28;20304;-55
2023/12/16 01:16:59;;;;;;;6.90;2.23;;;;;;;;;;8224357;28;20034;-58
2023/12/16 01:21:03;;;;;;;8.30;2.63;;;;;;;;;;8226233;28;20273;-56
2023/12/16 01:25:03;;;;;;;9.23;2.37;;;;;;;;;;8226026;28;20276;-57
2023/12/16 01:29:04;;;;;;;8.18;3.60;;;;;;;;;;8229491;28;20022;-58
2023/12/16 01:33:04;;;;;;;5.05;2.10;;;;;;;;;;8228241;28;20049;-58
2023/12/16 01:37:04;;;;;;;5.43;2.70;;;;;;;;;;8229460;28;20136;-58
2023/12/16 01:41:04;;;;;;;7.57;2.30;;;;;;;;;;8226669;28;20026;-57
2023/12/16 01:45:05;;;;;;;7.03;2.50;;;;;;;;;;8226254;28;20342;-57
2023/12/16 01:49:05;;;;;;;10.30;2.65;;;;;;;;;;8229795;28;20285;-57
2023/12/16 01:53:06;;;;;;;6.55;2.53;;;;;;;;;;8225354;28;20064;-57
2023/12/16 01:57:08;;;;;;;6.10;2.50;;;;;;;;;;8228617;28;21022;-57
2023/12/16 02:01:08;;;;;;;5.72;2.22;;;;;;;;;;8229367;28;20034;-58
2023/12/16 02:05:09;;;;;;;4.75;2.30;;;;;;;;;;8227585;28;22894;-58
2023/12/16 02:09:09;;;;;;;4.68;2.15;;;;;;;;;;8227952;28;20132;-58
2023/12/16 02:13:09;;;;;;;5.90;2.40;;;;;;;;;;8228096;28;20025;-58
2023/12/16 02:17:09;;;;;;;5.25;2.25;;;;;;;;;;8226044;28;20042;-58
2023/12/16 02:21:10;;;;;;;9.50;2.17;;;;;;;;;;8219804;28;20026;-58
2023/12/16 02:25:11;;;;;;;6.30;1.90;;;;;;;;;;8224274;28;20037;-58
2023/12/16 02:29:11;;;;;;;5.10;2.10;;;;;;;;;;8226354;28;20127;-58
2023/12/16 02:33:11;;;;;;;5.78;2.08;;;;;;;;;;8228377;28;20674;-57
2023/12/16 02:37:12;;;;;;;6.97;1.92;;;;;;;;;;8226044;28;20021;-58
2023/12/16 02:41:12;;;;;;;5.72;1.95;;;;;;;;;;8230242;28;20041;-57
2023/12/16 02:45:13;;;;;;;7.20;2.30;;;;;;;;;;8229112;28;20040;-57
2023/12/16 02:49:13;;;;;;;4.75;2.33;;;;;;;;;;8225173;28;20033;-58
2023/12/16 02:53:13;;;;;;;5.57;1.50;;;;;;;;;;8227164;28;20026;-58
2023/12/16 02:57:14;;;;;;;6.80;2.42;;;;;;;;;;8229238;28;20113;-58
2023/12/16 03:01:15;;;;;;;5.60;2.25;;;;;;;;;;8229161;28;20694;-58
2023/12/16 03:05:15;;;;;;;4.20;1.85;;;;;;;;;;8222775;28;20655;-58
2023/12/16 03:09:15;;;;;;;6.27;2.10;;;;;;;;;;8221906;28;20033;-58
2023/12/16 03:13:15;;;;;;;8.90;2.15;;;;;;;;;;8228098;28;20040;-57
2023/12/16 03:17:16;;;;;;;5.53;2.22;;;;;;;;;;8224873;28;20052;-58
2023/12/16 03:21:16;;;;;;;5.25;2.05;;;;;;;;;;8226669;28;20017;-58
2023/12/16 03:25:16;;;;;;;6.13;1.80;;;;;;;;;;8220811;28;20017;-58
2023/12/16 03:29:16;;;;;;;9.43;2.28;;;;;;;;;;8225182;28;20088;-58
2023/12/16 03:33:17;;;;;;;6.13;1.90;;;;;;;;;;8220852;28;20145;-58
2023/12/16 03:37:17;;;;;;;5.65;1.90;;;;;;;;;;8223625;28;20334;-58
2023/12/16 03:41:17;;;;;;;5.25;2.00;;;;;;;;;;8237946;28;20026;-58
2023/12/16 03:45:17;;;;;;;10.60;2.33;;;;;;;;;;8236338;28;20060;-57
2023/12/16 03:49:17;;;;;;;7.25;2.00;;;;;;;;;;8237469;28;20149;-57
2023/12/16 03:53:18;;;;;;;4.32;2.20;;;;;;;;;;8241877;28;20033;-57
2023/12/16 03:57:19;;;;;;;9.35;2.30;;;;;;;;;;8240531;28;20038;-57
2023/12/16 04:01:20;;;;;;;7.85;1.80;;;;;;;;;;8219465;28;20042;-57
2023/12/16 04:05:20;;;;;;;4.57;1.80;;;;;;;;;;8226348;28;20057;-57
2023/12/16 04:09:20;;;;;;;5.25;1.77;;;;;;;;;;8224634;28;20050;-57
2023/12/16 04:13:21;;;;;;;4.30;1.60;;;;;;;;;;8226062;28;20021;-57
2023/12/16 04:17:21;;;;;;;5.05;1.70;;;;;;;;;;8225207;28;20048;-57
2023/12/16 04:21:21;;;;;;;7.85;2.25;;;;;;;;;;8226792;28;20030;-57
2023/12/16 04:25:21;;;;;;;9.23;2.25;;;;;;;;;;8225329;28;20022;-57
2023/12/16 04:29:21;;;;;;;5.50;1.80;;;;;;;;;;8228947;28;20029;-56
2023/12/16 04:33:22;;;;;;;6.00;1.73;;;;;;;;;;8228332;28;20280;-57
2023/12/16 04:37:22;;;;;;;6.67;1.83;;;;;;;;;;8227256;28;20033;-57
2023/12/16 04:41:22;;;;;;;3.60;1.80;;;;;;;;;;8229073;28;20273;-57
2023/12/16 04:45:22;;;;;;;5.80;2.15;;;;;;;;;;8228447;28;20216;-56
2023/12/16 04:49:23;;;;;;;4.00;1.83;;;;;;;;;;8237399;28;20022;-57
2023/12/16 04:53:23;;;;;;;8.20;1.98;;;;;;;;;;8242354;28;20025;-58
2023/12/16 04:57:23;;;;;;;10.45;2.20;;;;;;;;;;8244757;28;20026;-57
2023/12/16 05:01:23;;;;;;;6.25;1.70;;;;;;;;;;8240914;28;20038;-57
2023/12/16 05:05:23;;;;;;;8.50;1.50;;;;;;;;;;8243264;28;20037;-56
2023/12/16 05:09:24;;;;;;;3.38;1.65;;;;;;;;;;8232360;28;20030;-56
2023/12/16 05:13:24;;;;;;;3.90;1.73;;;;;;;;;;8227689;28;20037;-56
2023/12/16 05:17:25;;;;;;;6.50;2.00;;;;;;;;;;8221936;28;20038;-57
2023/12/16 05:21:25;;;;;;;6.32;2.00;;;;;;;;;;8224817;28;20030;-57
2023/12/16 05:25:27;;;;;;;9.95;2.40;;;;;;;;;;8221836;28;20103;-57
2023/12/16 05:29:27;;;;;;;6.47;1.85;;;;;;;;;;8224455;28;20903;-58
2023/12/16 05:33:27;;;;;;;6.18;1.67;;;;;;;;;;8225329;28;20103;-58
2023/12/16 05:37:27;;;;;;;7.22;2.58;;;;;;;;;;8221522;28;20736;-58
2023/12/16 05:41:28;;;;;;;7.32;2.00;;;;;;;;;;8227097;28;20036;-58
2023/12/16 05:45:28;;;;;;;5.82;2.03;;;;;;;;;;8225202;28;20034;-58
2023/12/16 05:49:28;;;;;;;6.47;1.83;;;;;;;;;;8225109;28;20052;-58
2023/12/16 05:53:28;;;;;;;5.72;2.33;;;;;;;;;;8226674;28;20034;-58
2023/12/16 05:57:29;;;;;;;4.10;1.60;;;;;;;;;;8223456;28;20076;-57
2023/12/16 06:01:30;;;;;;;5.00;1.50;;;;;;;;;;8238091;28;20038;-56
2023/12/16 06:05:30;;;;;;;5.60;2.10;;;;;;;;;;8240788;28;20479;-57
2023/12/16 06:09:30;;;;;;;4.43;1.80;;;;;;;;;;8230136;28;20583;-56
2023/12/16 06:13:30;;;;;;;3.20;1.60;;;;;;;;;;8227112;28;20762;-56
2023/12/16 06:17:31;;;;;;;7.57;2.30;;;;;;;;;;8225942;28;20041;-57
2023/12/16 06:21:31;;;;;;;5.15;2.03;;;;;;;;;;8225131;28;20396;-57
2023/12/16 06:25:31;;;;;;;4.40;1.83;;;;;;;;;;8224251;28;20033;-58
2023/12/16 06:29:31;;;;;;;6.25;1.95;;;;;;;;;;8221301;28;20025;-57
2023/12/16 06:33:31;;;;;;;5.38;1.50;;;;;;;;;;8223216;28;20065;-59
2023/12/16 06:37:31;;;;;;;5.93;1.90;;;;;;;;;;8223760;28;20076;-58
2023/12/16 06:41:32;;;;;;;4.43;1.75;;;;;;;;;;8222827;28;20030;-58
2023/12/16 06:45:32;;;;;;;5.70;1.95;;;;;;;;;;8221921;28;20092;-57
2023/12/16 06:49:32;;;;;;;4.63;1.80;;;;;;;;;;8224837;28;20660;-57
2023/12/16 06:53:35;;;;;;;6.68;2.10;;;;;;;;;;8224048;28;20054;-57
2023/12/16 06:57:36;;;;;;;4.90;2.00;;;;;;;;;;8223559;28;20054;-58
2023/12/16 07:01:36;;;;;;;8.75;3.90;;;;;;;;;;8221400;28;20068;-57
2023/12/16 07:05:36;;;;;;;12.03;4.43;;;;;;;;;;8222116;28;20032;-57
2023/12/16 07:09:38;;;;;;;11.05;3.33;;;;;;;;;;8221795;28;20350;-58
2023/12/16 07:13:38;;;;;;;6.68;2.92;;;;;;;;;;8217054;28;20041;-58
2023/12/16 07:17:40;;;;;;;4.97;2.40;;;;;;;;;;8218586;28;20044;-57
2023/12/16 07:21:41;;;;;;;6.70;2.30;;;;;;;;;;8224182;28;20272;-58
2023/12/16 07:25:41;;;;;;;6.78;2.10;;;;;;;;;;8217631;28;20049;-57
2023/12/16 07:29:42;;;;;;;5.63;1.85;;;;;;;;;;8224500;28;20657;-58
2023/12/16 07:33:43;;;;;;;4.88;1.67;;;;;;;;;;8218841;28;20038;-58
2023/12/16 07:37:43;;;;;;;5.50;1.63;;;;;;;;;;8224767;28;20100;-58
2023/12/16 07:41:43;;;;;;;4.47;1.40;;;;;;;;;;8218521;28;20045;-57
2023/12/16 07:45:44;;;;;;;5.88;2.22;;;;;;;;;;8221634;28;20051;-57
2023/12/16 07:49:44;;;;;;;4.80;1.90;;;;;;;;;;8220312;28;20080;-57
2023/12/16 07:53:46;;;;;;;4.72;1.73;;;;;;;;;;8234661;28;20145;-57
2023/12/16 07:57:47;;;;;;;12.15;3.42;;;;;;;;;;8230191;28;20037;-57
2023/12/16 08:01:48;;;;;;;10.05;3.92;;;;;;;;;;8228127;28;20091;-57
2023/12/16 08:05:48;;;;;;;6.85;2.83;;;;;;;;;;8233328;28;20077;-58
2023/12/16 08:09:49;;;;;;;4.47;1.87;;;;;;;;;;8231865;28;20030;-58
2023/12/16 08:13:50;;;;;;;5.22;1.92;;;;;;;;;;8233218;28;20300;-55
2023/12/16 08:17:50;;;;;;;6.63;3.00;;;;;;;;;;8225668;28;20566;-60
2023/12/16 08:21:50;;;;;;;6.65;2.30;;;;;;;;;;8227797;28;20022;-58
2023/12/16 08:25:50;;;;;;;6.70;2.08;;;;;;;;;;8231856;28;20057;-58
2023/12/16 08:29:50;;;;;;;3.58;1.80;;;;;;;;;;8226084;28;20038;-58
2023/12/16 08:33:51;;;;;;;5.45;1.70;;;;;;;;;;8231537;28;20030;-58
2023/12/16 08:37:51;;;;;;;5.65;1.70;;;;;;;;;;8231909;28;20022;-57
2023/12/16 08:41:51;;;;;;;3.53;1.63;;;;;;;;;;8232287;28;20052;-57
2023/12/16 08:45:51;;;;;;;27.55;13.73;;;;;;;;;;8229626;28;20108;-58
2023/12/16 08:49:51;;;;;;;19.17;11.25;;;;;;;;;;8231490;28;20849;-56
2023/12/16 08:53:53;;;;;;;10.85;4.00;;;;;;;;;;8229470;28;20053;-57
2023/12/16 08:57:53;;;;;;;10.60;2.95;;;;;;;;;;8228240;28;20026;-57
2023/12/16 09:01:53;;;;;;;6.07;2.08;;;;;;;;;;8226195;28;20112;-58
2023/12/16 09:05:53;;;;;;;7.35;2.38;;;;;;;;;;8226567;28;20060;-56
2023/12/16 09:09:53;;;;;;;9.20;2.00;;;;;;;;;;8225409;28;20025;-57
2023/12/16 09:13:54;;;;;;;6.78;1.90;;;;;;;;;;8224802;28;20284;-58
2023/12/16 09:17:54;;;;;;;8.18;2.08;;;;;;;;;;8224094;28;20038;-58
2023/12/16 09:21:54;;;;;;;11.15;1.80;;;;;;;;;;8224398;28;20017;-57
2023/12/16 09:25:54;;;;;;;5.43;1.53;;;;;;;;;;8223617;28;20053;-57
2023/12/16 09:29:54;;;;;;;5.13;1.40;;;;;;;;;;8223166;28;21104;-57
2023/12/16 09:33:55;;;;;;;5.57;1.70;;;;;;;;;;8226928;28;20886;-58
2023/12/16 09:37:56;;;;;;;4.13;1.53;;;;;;;;;;8228899;28;20025;-57
2023/12/16 09:41:56;;;;;;;7.07;1.80;;;;;;;;;;8249321;28;20350;-57
2023/12/16 09:45:57;;;;;;;7.03;1.58;;;;;;;;;;8244751;28;20035;-58
2023/12/16 09:50:00;;;;;;;5.28;1.50;;;;;;;;;;8230793;28;20131;-57
2023/12/16 09:54:00;;;;;;;6.05;1.65;;;;;;;;;;8223114;28;20022;-57
2023/12/16 09:58:02;;;;;;;5.60;1.60;;;;;;;;;;8225957;28;20026;-57
2023/12/16 10:02:04;;;;;;;6.25;1.50;;;;;;;;;;8221939;28;20594;-57
2023/12/16 10:06:08;;;;;;;3.80;1.50;;;;;;;;;;8224565;28;20474;-58
2023/12/16 10:10:08;;;;;;;;;;;;;;;;;;8216450;28;20026;-57
2023/12/16 10:14:08;;;;;;;4.82;1.50;;;;;;;;;;8222072;28;19923;-58
2023/12/16 10:18:09;;;;;;;7.93;2.13;;;;;;;;;;8224283;28;20041;-58
2023/12/16 10:22:09;;;;;;;3.70;1.60;;;;;;;;;;8223893;28;20277;-57
2023/12/16 10:26:10;;;;;;;4.57;1.80;;;;;;;;;;8226898;28;22732;-58
2023/12/16 10:30:10;;;;;;;7.65;2.10;;;;;;;;;;8220521;28;20188;-58
2023/12/16 10:34:11;;;;;;;3.03;1.55;;;;;;;;;;8219996;28;20023;-57
2023/12/16 10:38:12;;;;;;;6.25;1.75;;;;;;;;;;8223323;28;20027;-57
2023/12/16 10:42:12;;;;;;;5.78;1.73;;;;;;;;;;8241652;28;20694;-58
2023/12/16 10:46:14;;;;;;;6.57;1.90;;;;;;;;;;8242372;28;20175;-58
2023/12/16 10:50:15;;;;;;;9.85;3.35;;;;;;;;;;8228912;28;20022;-56
2023/12/16 10:54:21;;;;;;;8.07;2.65;;;;;;;;;;8221168;28;20033;-57
2023/12/16 10:58:23;;;;;;;5.72;1.67;;;;;;;;;;8227606;28;20022;-57
2023/12/16 11:02:25;;;;;;;4.88;1.50;;;;;;;;;;8241542;28;20345;-56
2023/12/16 11:06:55;;;;;;;4.68;1.52;;;;;;;;;;8240697;28;20053;-57
2023/12/16 11:10:57;;;;;;;7.65;1.83;;;;;;;;;;8244591;28;20091;-57
2023/12/16 11:14:57;;;;;;;4.97;2.00;;;;;;;;;;8235380;28;20029;-57
2023/12/16 11:18:58;;;;;;;7.57;2.00;;;;;;;;;;8230854;28;21028;-58
2023/12/16 11:22:58;;;;;;;6.18;1.55;;;;;;;;;;8213393;28;20021;-58
2023/12/16 11:26:59;;;;;;;4.70;1.40;;;;;;;;;;8219073;28;20029;-58
2023/12/16 11:30:59;;;;;;;8.80;1.70;;;;;;;;;;8215182;28;20805;-57
2023/12/16 11:35:00;;;;;;;5.47;1.65;;;;;;;;;;8224266;28;20018;-56
2023/12/16 11:39:00;;;;;;;4.53;1.50;;;;;;;;;;8218792;28;20057;-57
2023/12/16 11:43:03;;;;;;;7.03;1.80;;;;;;;;;;8219748;28;20308;-57
2023/12/16 11:47:04;;;;;;;6.97;2.03;;;;;;;;;;8218294;28;20034;-58
2023/12/16 11:51:04;;;;;;;5.03;2.20;;;;;;;;;;8221653;28;20137;-57
2023/12/16 11:55:05;;;;;;;4.18;1.48;;;;;;;;;;8218624;28;20288;-58
2023/12/16 11:59:05;;;;;;;6.10;1.70;;;;;;;;;;8221897;28;20053;-57
2023/12/16 12:03:06;;;;;;;3.95;1.60;;;;;;;;;;8218046;28;20513;-56
2023/12/16 12:07:06;;;;;;;5.93;1.65;;;;;;;;;;8218810;28;20030;-57
2023/12/16 12:11:07;;;;;;;5.72;1.70;;;;;;;;;;8240637;28;20034;-57
2023/12/16 12:15:08;;;;;;;5.68;1.60;;;;;;;;;;8242928;28;20147;-57
2023/12/16 12:19:08;;;;;;;8.07;1.83;;;;;;;;;;8245059;28;20034;-56
2023/12/16 12:23:09;;;;;;;8.57;2.08;;;;;;;;;;8240924;28;22417;-58
2023/12/16 12:27:09;;;;;;;5.55;1.73;;;;;;;;;;8242443;28;20031;-55
2023/12/16 12:31:10;;;;;;;8.80;2.03;;;;;;;;;;8217794;28;20050;-56
2023/12/16 12:35:13;;;;;;;7.43;2.15;;;;;;;;;;8221160;28;20061;-57
2023/12/16 12:39:17;;;;;;;5.75;1.45;;;;;;;;;;8222324;28;20022;-57
2023/12/16 12:43:26;;;;;;;6.63;1.87;;;;;;;;;;8223854;28;20018;-58
2023/12/16 12:47:27;;;;;;;7.22;1.60;;;;;;;;;;8218590;28;20137;-57
2023/12/16 12:51:28;;;;;;;5.53;1.90;;;;;;;;;;8219916;28;20069;-59
2023/12/16 12:55:29;;;;;;;7.82;1.55;;;;;;;;;;8219367;28;20623;-57
2023/12/16 12:59:33;;;;;;;7.10;1.95;;;;;;;;;;8219561;28;20092;-58
2023/12/16 13:03:33;;;;;;;4.35;1.73;;;;;;;;;;8202424;28;20108;-58
2023/12/16 13:07:34;;;;;;;7.40;1.85;;;;;;;;;;8213196;28;20026;-57
2023/12/16 13:11:34;;;;;;;5.43;1.73;;;;;;;;;;8239102;28;20030;-57
2023/12/16 13:15:36;;;;;;;6.20;1.73;;;;;;;;;;8231460;28;20153;-57
2023/12/16 13:19:36;;;;;;;3.25;1.40;;;;;;;;;;8225950;28;20030;-58
2023/12/16 13:23:37;;;;;;;6.60;1.73;;;;;;;;;;8220584;28;20026;-58
2023/12/16 13:27:37;;;;;;;6.10;1.70;;;;;;;;;;8216121;28;20026;-58
2023/12/16 13:31:38;;;;;;;6.93;2.00;;;;;;;;;;8211180;28;20046;-57
2023/12/16 13:35:39;;;;;;;8.52;1.98;;;;;;;;;;8213156;28;20026;-58
2023/12/16 13:39:39;;;;;;;4.40;1.55;;;;;;;;;;8214112;28;20104;-57
2023/12/16 13:43:40;;;;;;;5.78;1.75;;;;;;;;;;8216321;28;20027;-58
2023/12/16 13:47:40;;;;;;;5.82;1.73;;;;;;;;;;8213521;28;20153;-57
2023/12/16 13:51:41;;;;;;;6.22;1.85;;;;;;;;;;8213908;28;20108;-57
2023/12/16 13:55:41;;;;;;;5.45;1.65;;;;;;;;;;8216822;28;20026;-57
2023/12/16 13:59:41;;;;;;;6.00;1.70;;;;;;;;;;8216786;28;20126;-58
2023/12/16 14:03:42;;;;;;;4.93;2.42;;;;;;;;;;8213593;28;20042;-57
2023/12/16 14:07:42;;;;;;;6.68;1.75;;;;;;;;;;8213828;28;20014;-58
2023/12/16 14:11:43;;;;;;;8.30;2.00;;;;;;;;;;8236683;28;20026;-59
2023/12/16 14:15:43;;;;;;;4.57;1.42;;;;;;;;;;8233646;28;20293;-58
2023/12/16 14:19:44;;;;;;;7.85;1.88;;;;;;;;;;8232477;28;20085;-58
2023/12/16 14:23:44;;;;;;;4.65;1.58;;;;;;;;;;8236825;28;20036;-56
2023/12/16 14:27:44;;;;;;;5.65;1.90;;;;;;;;;;8229072;28;20030;-57
2023/12/16 14:31:48;;;;;;;8.05;1.80;;;;;;;;;;8208972;28;20046;-57
2023/12/16 14:35:49;;;;;;;7.50;2.15;;;;;;;;;;8206964;28;20030;-58
2023/12/16 14:39:49;;;;;;;7.95;2.05;;;;;;;;;;8210749;28;20041;-58
2023/12/16 14:43:51;;;;;;;6.13;2.00;;;;;;;;;;8207996;28;20513;-57
2023/12/16 14:47:52;;;;;;;3.67;1.80;;;;;;;;;;8222133;28;20040;-58
2023/12/16 14:51:52;;;;;;;6.07;1.80;;;;;;;;;;8211605;28;20291;-58
2023/12/16 14:55:54;;;;;;;7.88;3.03;;;;;;;;;;8207110;28;20033;-58
2023/12/16 14:59:55;;;;;;;7.50;3.13;;;;;;;;;;8212706;28;20847;-57
2023/12/16 15:03:56;;;;;;;9.65;3.88;;;;;;;;;;8203961;28;20040;-57
2023/12/16 15:07:56;;;;;;;7.38;3.13;;;;;;;;;;8207187;28;20030;-59
2023/12/16 15:11:57;;;;;;;8.70;3.20;;;;;;;;;;8207543;28;21042;-57
2023/12/16 15:15:57;;;;;;;9.90;3.67;;;;;;;;;;8216202;28;20049;-57
2023/12/16 15:19:57;;;;;;;9.30;2.95;;;;;;;;;;8208331;28;20026;-55
2023/12/16 15:23:57;;;;;;;11.00;3.42;;;;;;;;;;8210527;28;20030;-58
2023/12/16 15:27:58;;;;;;;7.20;2.60;;;;;;;;;;8212534;28;20018;-57
2023/12/16 15:32:00;;;;;;;6.43;2.50;;;;;;;;;;8226251;28;20297;-57
2023/12/16 15:36:00;;;;;;;9.85;4.00;;;;;;;;;;8230453;28;20053;-56
2023/12/16 15:40:01;;;;;;;12.13;5.43;;;;;;;;;;8210570;28;20825;-57
2023/12/16 15:44:02;;;;;;;9.52;3.35;;;;;;;;;;8209759;28;20040;-57
2023/12/16 15:48:02;;;;;;;6.20;2.93;;;;;;;;;;8210466;28;20022;-57
2023/12/16 15:52:03;;;;;;;7.60;2.67;;;;;;;;;;8206468;28;20340;-57
2023/12/16 15:56:06;;;;;;;8.55;2.70;;;;;;;;;;8207424;28;20032;-56
2023/12/16 16:00:08;;;;;;;6.83;3.63;;;;;;;;;;8209281;28;20028;-56
2023/12/16 16:04:08;;;;;;;7.18;3.20;;;;;;;;;;8207304;28;21991;-56
2023/12/16 16:08:08;;;;;;;6.93;3.40;;;;;;;;;;8200731;28;22659;-57
2023/12/16 16:12:08;;;;;;;4.18;2.75;;;;;;;;;;8205830;28;20025;-56
2023/12/16 16:16:09;;;;;;;6.03;3.05;;;;;;;;;;8213673;28;20048;-56
2023/12/16 16:20:09;;;;;;;6.47;2.67;;;;;;;;;;8209503;28;20029;-57
2023/12/16 16:24:09;;;;;;;7.55;3.05;;;;;;;;;;8214236;28;20969;-56
2023/12/16 16:28:10;;;;;;;7.38;3.45;;;;;;;;;;8223371;28;20026;-56
2023/12/16 16:32:10;;;;;;;8.90;3.53;;;;;;;;;;8239743;28;20068;-58
2023/12/16 16:36:11;;;;;;;24.90;9.47;;;;;;;;;;8227542;28;20034;-57
2023/12/16 16:40:11;;;;;;;19.05;8.57;;;;;;;;;;8225232;28;20281;-57
2023/12/16 16:44:11;;;;;;;12.90;5.35;;;;;;;;;;8221816;28;20031;-56
2023/12/16 16:48:12;;;;;;;19.75;7.97;;;;;;;;;;8218494;28;20046;-57
2023/12/16 16:52:12;;;;;;;15.65;5.63;;;;;;;;;;8231078;28;21775;-57
2023/12/16 16:56:12;;;;;;;10.45;5.03;;;;;;;;;;8230870;28;20231;-57
2023/12/16 17:00:13;;;;;;;8.32;3.63;;;;;;;;;;8231899;28;20038;-57
2023/12/16 17:04:13;;;;;;;11.45;3.28;;;;;;;;;;8232906;28;20029;-58
2023/12/16 17:08:14;;;;;;;9.20;3.45;;;;;;;;;;8226846;28;20028;-60
2023/12/16 17:12:16;;;;;;;10.25;2.28;;;;;;;;;;8231054;28;20463;-57
2023/12/16 17:16:17;;;;;;;12.60;2.95;;;;;;;;;;8227360;28;20133;-56
2023/12/16 17:20:17;;;;;;;9.07;3.60;;;;;;;;;;8227118;28;20049;-57
2023/12/16 17:24:18;;;;;;;7.22;3.70;;;;;;;;;;8224831;28;20022;-56
2023/12/16 17:28:19;;;;;;;8.77;3.20;;;;;;;;;;8227976;28;20030;-57
2023/12/16 17:32:19;;;;;;;12.80;5.07;;;;;;;;;;8230576;28;20049;-57
2023/12/16 17:36:19;;;;;;;11.63;4.38;;;;;;;;;;8227101;28;20372;-57
2023/12/16 17:40:19;;;;;;;8.50;3.90;;;;;;;;;;8233105;28;20022;-57
2023/12/16 17:44:20;;;;;;;8.53;3.67;;;;;;;;;;8227796;28;20021;-57
2023/12/16 17:48:20;;;;;;;5.97;3.23;;;;;;;;;;8225745;28;20041;-57
2023/12/16 17:52:20;;;;;;;10.07;2.93;;;;;;;;;;8218947;28;20269;-58
2023/12/16 17:56:20;;;;;;;8.10;2.83;;;;;;;;;;8219130;28;20685;-57
2023/12/16 18:00:21;;;;;;;7.43;2.60;;;;;;;;;;8227028;28;20266;-56
2023/12/16 18:04:21;;;;;;;9.50;2.60;;;;;;;;;;8230008;28;20296;-57
2023/12/16 18:08:21;;;;;;;7.68;2.50;;;;;;;;;;8231446;28;20023;-57
2023/12/16 18:12:21;;;;;;;10.38;2.92;;;;;;;;;;8228313;28;20030;-58
2023/12/16 18:16:21;;;;;;;5.77;2.57;;;;;;;;;;8228336;28;20120;-56
2023/12/16 18:20:26;;;;;;;8.48;2.70;;;;;;;;;;8220403;28;20320;-59
2023/12/16 18:24:27;;;;;;;6.75;2.65;;;;;;;;;;8221196;28;20022;-58
2023/12/16 18:28:27;;;;;;;10.13;3.10;;;;;;;;;;8219976;28;20036;-57
2023/12/16 18:32:27;;;;;;;8.20;2.78;;;;;;;;;;8218532;28;20289;-58
2023/12/16 18:36:31;;;;;;;9.55;3.25;;;;;;;;;;8215682;28;20068;-58
2023/12/16 18:40:32;;;;;;;8.68;3.85;;;;;;;;;;8216163;28;20119;-57
2023/12/16 18:44:32;;;;;;;14.00;4.53;;;;;;;;;;8219053;28;20052;-57
2023/12/16 18:48:32;;;;;;;10.27;3.42;;;;;;;;;;8211515;28;20137;-57
2023/12/16 18:52:33;;;;;;;11.30;3.28;;;;;;;;;;8215872;28;20136;-59
2023/12/16 18:56:33;;;;;;;9.07;3.33;;;;;;;;;;8211205;28;20037;-57
2023/12/16 19:00:33;;;;;;;14.43;3.83;;;;;;;;;;8212038;28;20073;-56
2023/12/16 19:04:33;;;;;;;8.15;3.50;;;;;;;;;;8212693;28;20021;-56
2023/12/16 19:08:34;;;;;;;10.93;3.65;;;;;;;;;;8217804;28;20712;-56
2023/12/16 19:12:34;;;;;;;9.15;3.15;;;;;;;;;;8215794;28;20029;-57
2023/12/16 19:16:34;;;;;;;8.52;2.63;;;;;;;;;;8213211;28;20050;-56
2023/12/16 19:20:34;;;;;;;12.50;3.22;;;;;;;;;;8216263;28;20030;-57
2023/12/16 19:24:34;;;;;;;13.33;3.23;;;;;;;;;;8216347;28;20111;-57
2023/12/16 19:28:35;;;;;;;12.98;2.88;;;;;;;;;;8217699;28;20030;-57
2023/12/16 19:32:35;;;;;;;9.07;2.65;;;;;;;;;;8214526;28;20069;-58
2023/12/16 19:36:35;;;;;;;6.95;2.50;;;;;;;;;;8216274;28;20088;-57
2023/12/16 19:40:35;;;;;;;12.87;4.30;;;;;;;;;;8215528;28;20030;-58
2023/12/16 19:44:38;;;;;;;6.28;2.95;;;;;;;;;;8213692;28;21211;-58
2023/12/16 19:48:38;;;;;;;8.50;2.83;;;;;;;;;;8221621;28;20044;-57
2023/12/16 19:52:38;;;;;;;7.90;2.40;;;;;;;;;;8222183;28;20029;-57
2023/12/16 19:56:39;;;;;;;11.75;3.30;;;;;;;;;;8223260;28;20744;-59
2023/12/16 20:00:40;;;;;;;8.82;3.13;;;;;;;;;;8222222;28;20680;-57
2023/12/16 20:04:41;;;;;;;6.97;2.15;;;;;;;;;;8223381;28;20029;-58
2023/12/16 20:08:41;;;;;;;9.25;2.42;;;;;;;;;;8219715;28;20743;-58
2023/12/16 20:12:41;;;;;;;7.60;2.50;;;;;;;;;;8223805;28;20108;-56
2023/12/16 20:16:44;;;;;;;5.47;2.43;;;;;;;;;;8218624;28;20048;-57
2023/12/16 20:20:44;;;;;;;7.38;2.67;;;;;;;;;;8223134;28;20018;-55
2023/12/16 20:24:44;;;;;;;8.23;2.75;;;;;;;;;;8218827;28;20049;-57
2023/12/16 20:28:47;;;;;;;10.70;3.33;;;;;;;;;;8226348;28;20021;-57
2023/12/16 20:32:47;;;;;;;9.98;3.15;;;;;;;;;;8220958;28;20034;-57
2023/12/16 20:36:47;;;;;;;9.37;2.90;;;;;;;;;;8217736;28;20021;-57
2023/12/16 20:40:48;;;;;;;10.25;3.40;;;;;;;;;;8220760;28;20483;-57
2023/12/16 20:44:48;;;;;;;10.97;2.80;;;;;;;;;;8218415;28;20034;-57
2023/12/16 20:48:49;;;;;;;7.43;2.60;;;;;;;;;;8220007;28;20844;-58
2023/12/16 20:52:50;;;;;;;8.48;2.47;;;;;;;;;;8220018;28;20021;-58
2023/12/16 20:56:50;;;;;;;17.33;8.95;;;;;;;;;;8220001;28;20295;-61
2023/12/16 21:00:51;;;;;;;30.88;16.17;;;;;;;;;;8217166;28;20702;-58
2023/12/16 21:04:51;;;;;;;22.05;11.15;;;;;;;;;;8227458;28;20092;-58
2023/12/16 21:08:51;;;;;;;20.77;9.52;;;;;;;;;;8219555;28;20573;-57
2023/12/16 21:12:51;;;;;;;22.58;10.23;;;;;;;;;;8227044;28;20033;-56
2023/12/16 21:16:52;;;;;;;18.27;8.40;;;;;;;;;;8223533;28;20045;-56
2023/12/16 21:20:52;;;;;;;13.88;6.47;;;;;;;;;;8230600;28;20030;-56
2023/12/16 21:24:52;;;;;;;13.52;4.78;;;;;;;;;;8235625;28;20129;-57
2023/12/16 21:28:56;;;;;;;8.05;3.78;;;;;;;;;;8230081;28;20060;-58
2023/12/16 21:32:56;;;;;;;10.23;3.92;;;;;;;;;;8227855;28;20041;-58
2023/12/16 21:36:57;;;;;;;9.60;4.28;;;;;;;;;;8227236;28;20030;-58
2023/12/16 21:40:57;;;;;;;9.48;4.07;;;;;;;;;;8226852;28;20021;-58
2023/12/16 21:44:57;;;;;;;11.40;5.90;;;;;;;;;;8225261;28;20928;-57
2023/12/16 21:48:58;;;;;;;10.55;4.65;;;;;;;;;;8231827;28;20998;-57
2023/12/16 21:52:58;;;;;;;10.98;3.97;;;;;;;;;;8233297;28;20100;-55
2023/12/16 21:56:58;;;;;;;8.43;3.45;;;;;;;;;;8236092;28;20077;-56
2023/12/16 22:00:59;;;;;;;5.40;2.70;;;;;;;;;;8235053;28;20039;-57
2023/12/16 22:04:59;;;;;;;11.02;3.85;;;;;;;;;;8238213;28;20128;-58
2023/12/16 22:08:59;;;;;;;8.55;2.83;;;;;;;;;;8236682;28;20091;-57
2023/12/16 22:12:59;;;;;;;16.17;6.95;;;;;;;;;;8238424;28;20093;-57
2023/12/16 22:17:00;;;;;;;16.30;6.00;;;;;;;;;;8238600;28;20049;-57
2023/12/16 22:21:03;;;;;;;11.18;4.03;;;;;;;;;;8227688;28;20387;-58
2023/12/16 22:25:03;;;;;;;8.10;3.03;;;;;;;;;;8224961;28;20071;-58
2023/12/16 22:29:04;;;;;;;4.60;3.10;;;;;;;;;;8226119;28;20137;-56
2023/12/16 22:33:04;;;;;;;6.20;3.28;;;;;;;;;;8226368;28;20069;-57
2023/12/16 22:37:04;;;;;;;10.10;4.55;;;;;;;;;;8224208;28;20116;-64
2023/12/16 22:41:05;;;;;;;8.60;5.25;;;;;;;;;;8224972;28;20022;-57
2023/12/16 22:45:06;;;;;;;10.68;5.28;;;;;;;;;;8222098;28;20108;-55
2023/12/16 22:49:06;;;;;;;11.75;4.85;;;;;;;;;;8222447;28;20022;-57
2023/12/16 22:53:07;;;;;;;8.32;3.90;;;;;;;;;;8224043;28;21318;-57
2023/12/16 22:57:07;;;;;;;12.95;3.40;;;;;;;;;;8224632;28;20976;-57
2023/12/16 23:01:07;;;;;;;13.63;3.83;;;;;;;;;;8223416;28;20030;-57
2023/12/16 23:05:08;;;;;;;9.63;3.80;;;;;;;;;;8221864;28;20131;-58
2023/12/16 23:09:08;;;;;;;7.18;3.55;;;;;;;;;;8219590;28;22663;-57
2023/12/16 23:13:08;;;;;;;9.87;3.23;;;;;;;;;;8225326;28;20139;-57
2023/12/16 23:17:08;;;;;;;8.73;2.75;;;;;;;;;;8218695;28;20300;-57
2023/12/16 23:21:09;;;;;;;10.07;2.80;;;;;;;;;;8221685;28;20156;-57
2023/12/16 23:25:09;;;;;;;9.40;2.80;;;;;;;;;;8222556;28;20566;-58
2023/12/16 23:29:09;;;;;;;10.13;2.85;;;;;;;;;;8225547;28;23176;-57
2023/12/16 23:33:09;;;;;;;7.40;2.83;;;;;;;;;;8234569;28;20100;-58
2023/12/16 23:37:10;;;;;;;9.20;3.00;;;;;;;;;;8238871;28;20305;-57
2023/12/16 23:41:17;;;;;;;12.63;3.50;;;;;;;;;;8222826;28;20061;-57
2023/12/16 23:45:17;;;;;;;7.65;3.20;;;;;;;;;;8224838;28;20024;-57
2023/12/16 23:49:17;;;;;;;12.48;3.90;;;;;;;;;;8224513;28;20022;-58
2023/12/16 23:53:18;;;;;;;7.75;2.97;;;;;;;;;;8226117;28;20034;-58
2023/12/16 23:57:18;;;;;;;10.57;3.00;;;;;;;;;;8225665;28;20026;-57
